Time;durP1;ratioP1;P1;durP2;ratioP2;P2;SDS_P1;SDS_P2;PMS_P1;PMS_P2;Temp;Humidity;BMP_temperature;BMP_pressure;BME280_temperature;BME280_humidity;BME280_pressure;Samples;Min_cycle;Max_cycle;Signal;HPM_P1;HPM_P2
2022/03/09 00:01:57;;;;;;;6.20;2.88;;;2.40;99.90;;;;;;5101548;27;20047;-82
2022/03/09 00:04:22;;;;;;;10.07;3.10;;;2.40;99.90;;;;;;5096882;27;20128;-82
2022/03/09 00:06:48;;;;;;;5.93;2.80;;;2.30;99.90;;;;;;5106191;27;20051;-82
2022/03/09 00:09:14;;;;;;;6.35;2.72;;;2.30;99.90;;;;;;5120114;27;20411;-82
2022/03/09 00:11:40;;;;;;;9.52;3.50;;;2.30;99.90;;;;;;5107863;27;20473;-83
2022/03/09 00:14:06;;;;;;;8.18;2.97;;;2.20;99.90;;;;;;5123669;27;20180;-83
2022/03/09 00:16:32;;;;;;;6.85;2.92;;;2.20;99.90;;;;;;5107794;27;20542;-82
2022/03/09 00:18:57;;;;;;;6.82;3.25;;;2.20;99.90;;;;;;5105001;27;20497;-83
2022/03/09 00:21:23;;;;;;;7.00;3.00;;;2.20;99.90;;;;;;5112131;27;20046;-82
2022/03/09 00:23:48;;;;;;;7.45;3.03;;;2.10;99.90;;;;;;5112191;27;20046;-82
2022/03/09 00:26:14;;;;;;;7.57;3.20;;;2.10;99.90;;;;;;5105279;27;20175;-83
2022/03/09 00:28:40;;;;;;;8.25;3.25;;;2.20;99.90;;;;;;5129167;27;20098;-82
2022/03/09 00:31:06;;;;;;;9.55;3.78;;;2.10;99.90;;;;;;5111612;27;20704;-83
2022/03/09 00:33:32;;;;;;;7.00;3.00;;;2.10;99.90;;;;;;5107206;27;20027;-82
2022/03/09 00:35:58;;;;;;;8.10;3.08;;;2.10;99.90;;;;;;5126666;27;20564;-83
2022/03/09 00:38:24;;;;;;;9.55;3.47;;;2.10;99.90;;;;;;5122529;27;20047;-82
2022/03/09 00:40:52;;;;;;;8.05;3.35;;;2.10;99.90;;;;;;5090145;27;20055;-82
2022/03/09 00:43:18;;;;;;;7.15;3.25;;;2.10;99.90;;;;;;5122009;27;20095;-83
2022/03/09 00:45:44;;;;;;;7.05;2.95;;;2.10;99.90;;;;;;5124113;27;20043;-82
2022/03/09 00:48:10;;;;;;;8.77;3.58;;;2.00;99.90;;;;;;5125901;27;20132;-83
2022/03/09 00:50:36;;;;;;;11.90;3.47;;;2.00;99.90;;;;;;5129040;27;20118;-83
2022/03/09 00:53:02;;;;;;;7.25;3.40;;;2.00;99.90;;;;;;5122918;27;20039;-83
2022/03/09 00:55:28;;;;;;;9.02;3.10;;;2.00;99.90;;;;;;5126327;27;20122;-82
2022/03/09 00:57:53;;;;;;;9.48;3.40;;;1.90;99.90;;;;;;5108043;27;20179;-83
2022/03/09 01:00:19;;;;;;;6.82;3.08;;;1.90;99.90;;;;;;5107637;27;20471;-82
2022/03/09 01:02:46;;;;;;;7.80;3.33;;;1.90;99.90;;;;;;5128210;27;20251;-83
2022/03/09 01:05:13;;;;;;;7.65;3.25;;;1.80;99.90;;;;;;5111921;27;20054;-83
2022/03/09 01:07:39;;;;;;;9.02;3.38;;;1.80;99.90;;;;;;5122649;27;20031;-83
2022/03/09 01:10:06;;;;;;;9.02;3.75;;;1.70;99.90;;;;;;5115384;27;20057;-82
2022/03/09 01:12:32;;;;;;;7.57;3.38;;;1.60;99.90;;;;;;5132122;27;20395;-82
2022/03/09 01:14:57;;;;;;;7.30;3.30;;;1.60;99.90;;;;;;5128182;27;20057;-82
2022/03/09 01:17:24;;;;;;;7.75;3.55;;;1.60;99.90;;;;;;5114651;27;20051;-82
2022/03/09 01:19:49;;;;;;;8.48;3.45;;;1.60;99.90;;;;;;5131501;27;20184;-82
2022/03/09 01:22:15;;;;;;;13.88;3.47;;;1.50;99.90;;;;;;5130219;27;20161;-82
2022/03/09 01:24:41;;;;;;;9.07;3.30;;;1.50;99.90;;;;;;5115079;27;20049;-82
2022/03/09 01:27:07;;;;;;;7.93;3.67;;;2.20;99.90;;;;;;5111654;27;20042;-82
2022/03/09 01:29:32;;;;;;;11.60;3.80;;;1.40;99.90;;;;;;5127398;27;20038;-82
2022/03/09 01:31:58;;;;;;;10.40;3.72;;;1.40;99.90;;;;;;5132511;27;20051;-82
2022/03/09 01:34:24;;;;;;;7.82;3.42;;;1.40;99.90;;;;;;5113289;27;20350;-82
2022/03/09 01:36:49;;;;;;;8.07;3.63;;;1.40;99.90;;;;;;5130327;27;20062;-82
2022/03/09 01:39:15;;;;;;;12.95;3.60;;;1.40;99.90;;;;;;5113479;27;20047;-83
2022/03/09 01:41:41;;;;;;;8.27;3.70;;;1.40;99.90;;;;;;5114670;27;20039;-83
2022/03/09 01:44:12;;;;;;;9.05;4.00;;;1.40;99.90;;;;;;5131791;27;20030;-83
2022/03/09 01:46:39;;;;;;;11.18;4.05;;;1.30;99.90;;;;;;5114145;27;20117;-83
2022/03/09 01:49:06;;;;;;;9.43;4.43;;;1.30;99.90;;;;;;5120442;27;20039;-83
2022/03/09 01:51:35;;;;;;;8.57;4.15;;;1.30;99.90;;;;;;5093920;27;20195;-83
2022/03/09 01:54:00;;;;;;;8.13;4.10;;;1.30;99.90;;;;;;5108485;27;20053;-83
2022/03/09 01:56:27;;;;;;;9.82;4.15;;;1.30;99.90;;;;;;5128178;27;20039;-83
2022/03/09 01:58:55;;;;;;;13.85;4.78;;;1.30;99.90;;;;;;5128791;27;20533;-83
2022/03/09 02:01:22;;;;;;;10.32;4.95;;;1.30;99.90;;;;;;5113476;27;20559;-83
2022/03/09 02:03:48;;;;;;;10.18;4.30;;;1.30;99.90;;;;;;5098926;27;20041;-83
2022/03/09 02:06:13;;;;;;;9.25;3.92;;;1.30;99.90;;;;;;5125783;27;20039;-83
2022/03/09 02:11:25;;;;;;;8.77;4.18;;;1.70;99.90;;;;;;5131435;27;20081;-83
2022/03/09 02:13:51;;;;;;;11.85;4.05;;;1.20;99.90;;;;;;5110796;27;20050;-82
2022/03/09 02:16:17;;;;;;;8.80;4.22;;;1.20;99.90;;;;;;5117653;27;20055;-83
2022/03/09 02:18:43;;;;;;;9.00;4.57;;;1.20;99.90;;;;;;5110873;27;20127;-83
2022/03/09 02:21:13;;;;;;;9.52;4.20;;;1.30;99.90;;;;;;5108877;27;20505;-83
2022/03/09 02:23:39;;;;;;;9.07;4.03;;;1.20;99.90;;;;;;5102159;27;20047;-83
2022/03/09 02:26:05;;;;;;;8.70;4.07;;;1.20;99.90;;;;;;5111885;27;20395;-83
2022/03/09 02:28:36;;;;;;;10.68;3.90;;;1.20;99.90;;;;;;5102641;27;20043;-82
2022/03/09 02:31:01;;;;;;;9.50;4.22;;;2.20;99.90;;;;;;5118896;27;20043;-82
2022/03/09 02:33:27;;;;;;;8.57;4.00;;;1.10;99.90;;;;;;5094167;27;20101;-83
2022/03/09 02:35:53;;;;;;;14.27;4.72;;;1.10;99.90;;;;;;5113657;27;20043;-82
2022/03/09 02:38:18;;;;;;;11.25;4.57;;;1.00;99.90;;;;;;5098330;27;20043;-82
2022/03/09 02:40:44;;;;;;;10.07;4.18;;;0.90;99.90;;;;;;5090417;27;20046;-83
2022/03/09 02:43:09;;;;;;;9.38;4.47;;;0.90;99.90;;;;;;5093833;27;20043;-82
2022/03/09 02:45:35;;;;;;;12.93;4.35;;;0.90;99.90;;;;;;5118167;27;20479;-82
2022/03/09 02:48:01;;;;;;;11.00;4.82;;;1.90;99.90;;;;;;5085038;27;20035;-82
2022/03/09 02:50:27;;;;;;;8.63;4.38;;;0.80;99.90;;;;;;5118429;27;20039;-83
2022/03/09 02:52:52;;;;;;;8.98;4.32;;;0.80;99.90;;;;;;5118795;27;20506;-82
2022/03/09 02:55:18;;;;;;;9.38;4.22;;;0.80;99.90;;;;;;5092479;27;20039;-82
2022/03/09 02:57:45;;;;;;;10.18;4.80;;;0.70;99.90;;;;;;5097973;27;20047;-83
2022/03/09 03:00:11;;;;;;;9.88;4.55;;;0.70;99.90;;;;;;5101903;27;20066;-83
2022/03/09 03:02:38;;;;;;;9.10;4.10;;;0.60;99.90;;;;;;5113902;27;20031;-83
2022/03/09 03:05:07;;;;;;;11.20;5.00;;;0.60;99.90;;;;;;5117908;27;20103;-83
2022/03/09 03:07:33;;;;;;;11.85;4.38;;;0.60;99.90;;;;;;5096082;27;20075;-83
2022/03/09 03:09:59;;;;;;;10.40;5.13;;;0.50;99.90;;;;;;5114676;27;20043;-82
2022/03/09 03:12:24;;;;;;;10.63;4.53;;;0.50;99.90;;;;;;5118377;27;20043;-82
2022/03/09 03:14:53;;;;;;;11.48;4.70;;;0.50;99.90;;;;;;5120764;27;20047;-83
2022/03/09 03:17:18;;;;;;;10.50;4.63;;;0.40;99.90;;;;;;5127922;27;20035;-82
2022/03/09 03:19:44;;;;;;;12.10;5.25;;;0.40;99.90;;;;;;5130396;27;20058;-83
2022/03/09 03:22:10;;;;;;;11.05;4.93;;;0.40;99.90;;;;;;5119059;27;20042;-83
2022/03/09 03:24:35;;;;;;;13.45;4.88;;;0.40;99.90;;;;;;5105560;27;20051;-83
2022/03/09 03:27:01;;;;;;;11.30;4.72;;;0.50;99.90;;;;;;5127628;27;20043;-83
2022/03/09 03:29:26;;;;;;;11.60;5.22;;;1.20;99.90;;;;;;5112711;27;20030;-83
2022/03/09 03:31:52;;;;;;;10.02;5.00;;;0.40;99.90;;;;;;5121760;27;20395;-83
2022/03/09 03:34:18;;;;;;;10.25;4.88;;;0.40;99.90;;;;;;5115997;27;20766;-82
2022/03/09 03:36:43;;;;;;;9.85;4.82;;;0.30;99.90;;;;;;5128974;27;20561;-83
2022/03/09 03:39:09;;;;;;;12.98;4.95;;;0.30;99.90;;;;;;5130525;27;20037;-82
2022/03/09 03:41:36;;;;;;;11.20;4.85;;;1.20;99.90;;;;;;5097860;27;20120;-82
2022/03/09 03:44:03;;;;;;;12.10;5.20;;;0.30;99.90;;;;;;5108376;27;20100;-82
2022/03/09 03:46:29;;;;;;;11.35;5.80;;;0.30;99.90;;;;;;5125967;27;20526;-82
2022/03/09 03:48:54;;;;;;;12.55;5.50;;;0.30;99.90;;;;;;5102586;27;20042;-82
2022/03/09 03:51:23;;;;;;;11.23;5.22;;;0.30;99.90;;;;;;5111184;27;20043;-82
2022/03/09 03:53:48;;;;;;;12.80;6.40;;;0.30;99.90;;;;;;5101336;27;20597;-82
2022/03/09 03:56:14;;;;;;;13.40;6.40;;;0.30;99.90;;;;;;5098830;27;20035;-83
2022/03/09 03:58:39;;;;;;;12.68;5.63;;;0.30;99.90;;;;;;5108512;27;20046;-83
2022/03/09 04:01:05;;;;;;;12.43;5.45;;;0.30;99.90;;;;;;5115827;27;20050;-83
2022/03/09 04:03:31;;;;;;;14.05;5.55;;;0.30;99.90;;;;;;5105593;27;20041;-82
2022/03/09 04:05:56;;;;;;;12.75;5.85;;;0.30;99.90;;;;;;5131245;27;20398;-83
2022/03/09 04:08:22;;;;;;;12.05;5.72;;;0.30;99.90;;;;;;5115299;27;20455;-82
2022/03/09 04:10:48;;;;;;;10.90;5.57;;;0.30;99.90;;;;;;5111237;27;20057;-82
2022/03/09 04:13:13;;;;;;;11.05;5.70;;;0.30;99.90;;;;;;5108073;27;20031;-82
2022/03/09 04:15:39;;;;;;;13.45;5.70;;;0.30;99.90;;;;;;5131970;27;20051;-83
2022/03/09 04:18:05;;;;;;;13.20;6.00;;;0.30;99.90;;;;;;5097754;27;20047;-83
2022/03/09 04:20:31;;;;;;;11.45;5.53;;;0.30;99.90;;;;;;5125550;27;20050;-83
2022/03/09 04:22:56;;;;;;;13.25;6.28;;;0.30;99.90;;;;;;5115198;27;20484;-83
2022/03/09 04:25:22;;;;;;;10.95;5.50;;;0.30;99.90;;;;;;5094554;28;20039;-83
2022/03/09 04:27:48;;;;;;;12.35;6.03;;;1.50;99.90;;;;;;5108924;27;20091;-82
2022/03/09 04:30:13;;;;;;;13.52;5.78;;;0.30;99.90;;;;;;5094406;28;20047;-83
2022/03/09 04:32:39;;;;;;;12.70;6.07;;;0.30;99.90;;;;;;5110181;28;20408;-83
2022/03/09 04:35:06;;;;;;;11.95;5.97;;;0.30;99.90;;;;;;5117964;27;20047;-82
2022/03/09 04:37:33;;;;;;;13.75;6.05;;;0.30;99.90;;;;;;5106400;27;20510;-82
2022/03/09 04:40:03;;;;;;;13.32;6.10;;;0.20;99.90;;;;;;5112096;27;20039;-82
2022/03/09 04:42:29;;;;;;;14.52;6.28;;;0.20;99.90;;;;;;5120305;27;20836;-82
2022/03/09 04:44:55;;;;;;;12.02;5.80;;;0.20;99.90;;;;;;5110870;27;20082;-82
2022/03/09 04:47:21;;;;;;;12.63;5.93;;;0.20;99.90;;;;;;5123909;27;20046;-82
2022/03/09 04:49:47;;;;;;;11.35;5.35;;;0.20;99.90;;;;;;5102052;27;20543;-83
2022/03/09 04:52:13;;;;;;;12.13;6.10;;;0.10;99.90;;;;;;5093993;28;20071;-83
2022/03/09 04:54:39;;;;;;;12.88;6.30;;;0.10;99.90;;;;;;5117275;28;20063;-82
2022/03/09 04:57:05;;;;;;;12.23;5.90;;;0.10;99.90;;;;;;5107414;27;20043;-82
2022/03/09 04:59:30;;;;;;;13.98;6.20;;;0.10;99.90;;;;;;5091278;27;20043;-82
2022/03/09 05:01:56;;;;;;;14.07;6.32;;;0.30;99.90;;;;;;5109531;27;20038;-82
2022/03/09 05:04:22;;;;;;;12.48;5.50;;;0.00;99.90;;;;;;5123518;27;20505;-83
2022/03/09 05:06:48;;;;;;;12.07;6.47;;;0.00;99.90;;;;;;5104288;27;20043;-83
2022/03/09 05:09:13;;;;;;;12.75;6.00;;;-0.10;99.90;;;;;;5103614;28;20043;-82
2022/03/09 05:11:39;;;;;;;11.27;5.63;;;-0.10;99.90;;;;;;5124127;27;20054;-82
2022/03/09 05:14:05;;;;;;;12.95;6.70;;;-0.10;99.90;;;;;;5117799;27;20323;-83
2022/03/09 05:16:30;;;;;;;12.10;6.45;;;-0.20;99.90;;;;;;5082651;27;20043;-82
2022/03/09 05:18:56;;;;;;;13.38;6.35;;;-0.20;99.90;;;;;;5124230;27;20047;-82
2022/03/09 05:21:22;;;;;;;17.13;6.65;;;-0.20;99.90;;;;;;5118760;27;20039;-82
2022/03/09 05:23:47;;;;;;;13.10;6.20;;;-0.30;99.90;;;;;;5106715;27;20236;-82
2022/03/09 05:26:13;;;;;;;12.50;7.05;;;-0.30;99.90;;;;;;5117593;28;20035;-82
2022/03/09 05:28:39;;;;;;;14.40;7.13;;;-0.30;99.90;;;;;;5104313;27;20061;-82
2022/03/09 05:31:04;;;;;;;14.45;6.18;;;-0.30;99.90;;;;;;5090382;28;20098;-82
2022/03/09 05:33:30;;;;;;;13.68;6.35;;;-0.30;99.90;;;;;;5112581;27;20487;-82
2022/03/09 05:35:56;;;;;;;12.13;6.57;;;-0.30;99.90;;;;;;5121718;28;20509;-82
2022/03/09 05:38:22;;;;;;;12.45;5.65;;;-0.30;99.90;;;;;;5096901;27;20043;-82
2022/03/09 05:40:47;;;;;;;14.38;6.45;;;-0.30;99.90;;;;;;5098967;27;20039;-83
2022/03/09 05:43:13;;;;;;;14.57;6.50;;;-0.30;99.90;;;;;;5093523;27;20407;-83
2022/03/09 05:45:38;;;;;;;12.70;6.40;;;-0.30;99.90;;;;;;5101155;27;20132;-82
2022/03/09 05:48:04;;;;;;;11.65;6.65;;;-0.30;99.90;;;;;;5125085;27;20632;-82
2022/03/09 05:50:30;;;;;;;14.88;6.82;;;-0.30;99.90;;;;;;5115607;27;20129;-82
2022/03/09 05:52:56;;;;;;;12.75;6.82;;;-0.30;99.90;;;;;;5111543;27;20035;-83
2022/03/09 05:55:22;;;;;;;12.43;6.72;;;-0.30;99.90;;;;;;5113852;27;20039;-82
2022/03/09 05:57:47;;;;;;;12.45;6.25;;;-0.30;99.90;;;;;;5123590;27;20047;-82
2022/03/09 06:00:14;;;;;;;12.88;6.40;;;-0.30;99.90;;;;;;5120604;27;20087;-83
2022/03/09 06:02:39;;;;;;;15.70;6.78;;;-0.50;99.90;;;;;;5109808;27;20043;-83
2022/03/09 06:05:05;;;;;;;13.43;6.40;;;-0.40;99.90;;;;;;5100359;27;20461;-82
2022/03/09 06:07:32;;;;;;;12.65;6.50;;;-0.40;99.90;;;;;;5119356;27;20547;-82
2022/03/09 06:09:58;;;;;;;12.60;6.13;;;-0.40;99.90;;;;;;5125975;27;20521;-82
2022/03/09 06:12:24;;;;;;;17.80;6.38;;;-0.40;99.90;;;;;;5107090;27;20603;-83
2022/03/09 06:14:50;;;;;;;12.63;6.47;;;-0.40;99.90;;;;;;5123198;27;20051;-82
2022/03/09 06:17:15;;;;;;;18.13;6.63;;;-0.40;99.90;;;;;;5088343;27;20446;-82
2022/03/09 06:19:41;;;;;;;15.30;6.57;;;-0.40;99.90;;;;;;5105188;27;20043;-83
2022/03/09 06:22:07;;;;;;;14.55;7.00;;;-0.50;99.90;;;;;;5107364;27;20039;-83
2022/03/09 06:24:32;;;;;;;15.20;6.80;;;-0.50;99.90;;;;;;5106725;27;20098;-82
2022/03/09 06:26:59;;;;;;;13.15;6.85;;;-0.50;99.90;;;;;;5107075;27;20031;-84
2022/03/09 06:29:25;;;;;;;13.82;6.57;;;-0.50;99.90;;;;;;5084785;27;20615;-83
2022/03/09 06:31:57;;;;;;;14.63;6.18;;;-0.50;99.90;;;;;;5105963;27;20047;-83
2022/03/09 06:34:22;;;;;;;13.43;6.53;;;-0.50;99.90;;;;;;5094038;27;20054;-83
2022/03/09 06:36:48;;;;;;;15.48;6.90;;;-0.50;99.90;;;;;;5093032;27;20427;-83
2022/03/09 06:39:15;;;;;;;13.88;6.38;;;-0.40;99.90;;;;;;5091327;27;20100;-83
2022/03/09 06:41:43;;;;;;;11.77;6.05;;;-0.40;99.90;;;;;;5078965;27;20039;-82
2022/03/09 06:44:13;;;;;;;13.82;7.22;;;-0.30;99.90;;;;;;5079011;27;20050;-83
2022/03/09 06:46:39;;;;;;;16.75;7.13;;;-0.20;99.90;;;;;;5078460;27;20112;-83
2022/03/09 06:49:05;;;;;;;16.35;6.70;;;-0.10;99.90;;;;;;5076783;27;20047;-82
2022/03/09 06:51:32;;;;;;;13.10;6.85;;;-0.10;99.90;;;;;;5078544;27;20041;-82
2022/03/09 06:53:58;;;;;;;13.43;6.75;;;0.10;99.90;;;;;;5097591;27;20048;-83
2022/03/09 06:56:24;;;;;;;13.68;6.60;;;0.20;99.90;;;;;;5103764;27;20553;-83
2022/03/09 06:58:50;;;;;;;13.90;6.18;;;0.30;99.90;;;;;;5109333;27;20457;-83
2022/03/09 07:01:16;;;;;;;16.25;6.75;;;0.40;99.90;;;;;;5091678;27;20047;-83
2022/03/09 07:03:42;;;;;;;11.27;6.53;;;0.50;99.90;;;;;;5079348;27;20399;-83
2022/03/09 07:06:08;;;;;;;13.63;6.25;;;0.60;99.90;;;;;;5094346;27;20563;-82
2022/03/09 07:08:34;;;;;;;14.55;6.47;;;0.80;99.90;;;;;;5082019;27;20047;-82
2022/03/09 07:10:59;;;;;;;16.98;6.55;;;0.90;99.90;;;;;;5081841;27;20047;-82
2022/03/09 07:13:25;;;;;;;12.20;6.55;;;1.80;99.90;;;;;;5100439;27;20043;-82
2022/03/09 07:15:52;;;;;;;14.40;6.28;;;3.50;99.90;;;;;;5103475;27;20047;-83
2022/03/09 07:18:19;;;;;;;15.48;7.10;;;5.20;99.90;;;;;;5101266;27;20399;-82
2022/03/09 07:20:44;;;;;;;14.70;6.53;;;6.20;99.90;;;;;;5086937;27;20121;-82
2022/03/09 07:23:10;;;;;;;12.82;5.75;;;6.40;99.90;;;;;;5105804;27;20263;-83
2022/03/09 07:25:36;;;;;;;13.73;5.72;;;6.90;99.90;;;;;;5083414;27;20035;-81
2022/03/09 07:28:02;;;;;;;12.68;6.68;;;8.40;98.90;;;;;;5103974;27;20047;-81
2022/03/09 07:30:28;;;;;;;10.95;6.03;;;8.30;97.70;;;;;;5102775;27;20109;-82
2022/03/09 07:32:54;;;;;;;12.15;5.65;;;9.20;97.10;;;;;;5100713;27;20047;-81
2022/03/09 07:35:21;;;;;;;11.30;5.95;;;10.20;94.70;;;;;;5106021;27;20035;-82
2022/03/09 07:37:50;;;;;;;13.38;6.30;;;11.00;92.60;;;;;;5088732;27;20051;-82
2022/03/09 07:40:15;;;;;;;11.35;5.95;;;11.60;89.30;;;;;;5072789;27;20043;-82
2022/03/09 07:42:41;;;;;;;11.88;5.93;;;11.70;82.50;;;;;;5097902;27;20039;-82
2022/03/09 07:45:08;;;;;;;10.13;5.72;;;11.80;81.00;;;;;;5107633;27;20047;-82
2022/03/09 07:47:35;;;;;;;16.13;6.68;;;11.20;81.80;;;;;;5103977;27;20031;-82
2022/03/09 07:50:01;;;;;;;13.88;6.13;;;11.20;81.50;;;;;;5089203;27;20047;-82
2022/03/09 07:52:27;;;;;;;13.25;5.97;;;11.90;81.90;;;;;;5102786;27;20031;-82
2022/03/09 07:54:52;;;;;;;11.15;5.85;;;11.50;81.20;;;;;;5083725;27;20050;-82
2022/03/09 07:57:18;;;;;;;10.98;5.90;;;12.40;76.80;;;;;;5087478;27;20047;-82
2022/03/09 07:59:43;;;;;;;16.65;6.50;;;12.40;77.70;;;;;;5085097;27;20159;-81
2022/03/09 08:02:09;;;;;;;12.43;6.20;;;12.20;75.90;;;;;;5079761;27;20499;-82
2022/03/09 08:04:35;;;;;;;10.93;6.00;;;12.20;74.80;;;;;;5090785;27;20125;-82
2022/03/09 08:07:00;;;;;;;12.57;5.97;;;12.70;72.60;;;;;;5086990;27;20046;-82
2022/03/09 08:09:26;;;;;;;10.82;6.10;;;12.20;71.10;;;;;;5088196;27;20039;-82
2022/03/09 08:11:52;;;;;;;9.55;5.55;;;10.90;71.80;;;;;;5103189;27;20054;-82
2022/03/09 08:14:17;;;;;;;12.23;6.18;;;9.80;73.20;;;;;;5107739;27;20195;-82
2022/03/09 08:16:43;;;;;;;12.75;6.68;;;8.90;73.40;;;;;;5091599;27;20115;-82
2022/03/09 08:19:09;;;;;;;12.75;5.85;;;8.60;75.40;;;;;;5105402;27;20114;-83
2022/03/09 08:21:35;;;;;;;13.13;5.95;;;7.90;77.50;;;;;;5092521;27;20043;-84
2022/03/09 08:24:00;;;;;;;14.45;6.55;;;8.20;77.00;;;;;;5107370;27;20063;-85
2022/03/09 08:26:26;;;;;;;11.88;6.30;;;7.40;77.50;;;;;;5087800;27;20039;-84
2022/03/09 08:28:52;;;;;;;10.90;5.60;;;7.30;79.40;;;;;;5099860;27;20541;-84
2022/03/09 08:31:18;;;;;;;10.82;6.15;;;7.90;80.50;;;;;;5100644;27;20047;-83
2022/03/09 08:33:44;;;;;;;11.55;6.25;;;7.30;78.70;;;;;;5081327;28;20043;-83
2022/03/09 08:36:11;;;;;;;11.82;6.07;;;7.20;79.60;;;;;;5102654;28;20164;-83
2022/03/09 08:38:37;;;;;;;12.60;5.95;;;7.30;80.20;;;;;;5102953;27;20042;-84
2022/03/09 08:41:02;;;;;;;12.70;6.10;;;7.30;78.90;;;;;;5091752;27;20507;-86
2022/03/09 08:43:28;;;;;;;12.82;6.25;;;7.30;80.30;;;;;;5092860;28;20042;-82
2022/03/09 08:45:54;;;;;;;10.57;5.88;;;7.40;80.20;;;;;;5089292;28;20050;-82
2022/03/09 08:48:20;;;;;;;16.08;6.10;;;7.60;81.20;;;;;;5084060;28;20050;-84
2022/03/09 08:50:46;;;;;;;12.48;5.50;;;7.80;77.70;;;;;;5092823;28;20043;-83
2022/03/09 08:53:12;;;;;;;14.02;6.80;;;7.90;80.30;;;;;;5093497;28;20092;-84
2022/03/09 08:55:38;;;;;;;10.55;5.80;;;8.00;77.40;;;;;;5092549;28;20040;-83
2022/03/09 08:58:04;;;;;;;11.48;6.15;;;8.10;77.60;;;;;;5109513;28;20057;-85
2022/03/09 09:00:29;;;;;;;10.68;5.47;;;8.10;78.10;;;;;;5109683;28;20532;-82
2022/03/09 09:02:55;;;;;;;10.80;5.97;;;8.20;78.90;;;;;;5107940;28;20776;-83
2022/03/09 09:05:22;;;;;;;14.30;6.70;;;8.30;77.20;;;;;;5109162;28;20046;-83
2022/03/09 09:07:48;;;;;;;11.63;6.25;;;8.40;76.80;;;;;;5109950;28;20047;-83
2022/03/09 09:10:14;;;;;;;13.65;6.63;;;8.50;77.80;;;;;;5093305;28;20050;-83
2022/03/09 09:12:40;;;;;;;13.52;6.32;;;8.50;77.80;;;;;;5110456;28;20519;-83
2022/03/09 09:15:06;;;;;;;10.90;5.60;;;8.60;74.40;;;;;;5105873;27;20601;-82
2022/03/09 09:17:32;;;;;;;13.25;5.82;;;8.60;75.00;;;;;;5110713;28;20504;-83
2022/03/09 09:19:58;;;;;;;12.70;6.10;;;8.70;76.40;;;;;;5092997;28;20043;-84
2022/03/09 09:22:24;;;;;;;12.43;6.57;;;8.80;74.30;;;;;;5109357;28;20112;-83
2022/03/09 09:24:50;;;;;;;11.30;5.53;;;8.80;77.10;;;;;;5109938;28;20035;-83
2022/03/09 09:27:16;;;;;;;9.77;5.78;;;9.00;76.40;;;;;;5093336;28;20106;-83
2022/03/09 09:29:42;;;;;;;11.77;5.88;;;9.10;75.60;;;;;;5094848;27;20130;-85
2022/03/09 09:32:08;;;;;;;11.77;6.43;;;9.20;71.20;;;;;;5113395;27;20072;-83
2022/03/09 09:34:34;;;;;;;13.80;6.28;;;9.20;71.20;;;;;;5095490;27;20570;-83
2022/03/09 09:37:02;;;;;;;11.48;5.70;;;9.20;70.10;;;;;;5113456;27;20138;-83
2022/03/09 09:39:28;;;;;;;11.30;5.95;;;9.30;74.90;;;;;;5096319;27;20051;-84
2022/03/09 09:41:54;;;;;;;12.10;6.35;;;9.40;74.40;;;;;;5112935;27;20054;-83
2022/03/09 09:44:22;;;;;;;11.80;5.78;;;9.40;72.00;;;;;;5113468;27;20411;-87
2022/03/09 09:46:47;;;;;;;11.20;5.90;;;9.50;73.30;;;;;;5113029;27;20047;-84
2022/03/09 09:49:15;;;;;;;16.20;6.00;;;9.50;73.40;;;;;;5096396;27;20046;-83
2022/03/09 09:51:43;;;;;;;12.80;5.53;;;9.60;74.90;;;;;;5095598;27;20131;-83
2022/03/09 09:54:10;;;;;;;11.15;6.13;;;9.60;70.90;;;;;;5096122;27;20101;-83
2022/03/09 09:56:38;;;;;;;10.63;5.82;;;9.60;72.60;;;;;;5095242;27;20056;-84
2022/03/09 09:59:05;;;;;;;9.23;5.35;;;10.10;73.20;;;;;;5095981;27;20039;-84
2022/03/09 10:01:31;;;;;;;11.50;6.05;;;9.60;71.00;;;;;;5111207;27;20043;-85
2022/03/09 10:03:57;;;;;;;11.18;6.05;;;9.90;72.10;;;;;;5111482;27;20046;-82
2022/03/09 10:06:22;;;;;;;10.48;6.28;;;9.70;73.50;;;;;;5111045;27;20046;-83
2022/03/09 10:09:07;;;;;;;13.63;6.20;;;9.80;72.90;;;;;;5112940;27;20062;-84
2022/03/09 10:11:52;;;;;;;12.93;5.75;;;9.80;70.50;;;;;;5106836;27;20603;-82
2022/03/09 10:14:48;;;;;;;12.02;6.38;;;9.80;72.30;;;;;;5112012;27;20134;-82
2022/03/09 10:17:15;;;;;;;11.55;6.72;;;9.80;72.80;;;;;;5110171;27;20047;-83
2022/03/09 10:19:46;;;;;;;17.27;6.75;;;9.90;72.30;;;;;;5095559;27;20071;-86
2022/03/09 10:22:24;;;;;;;;;;;9.80;72.30;;;;;;5094533;27;20039;-82
2022/03/09 10:24:52;;;;;;;10.27;6.07;;;9.80;71.80;;;;;;5095292;27;19923;-82
2022/03/09 10:27:39;;;;;;;12.52;6.60;;;9.70;69.40;;;;;;5095940;27;20047;-84
2022/03/09 10:30:09;;;;;;;12.00;6.32;;;9.70;69.10;;;;;;5112069;27;20047;-83
2022/03/09 10:33:05;;;;;;;14.48;6.80;;;9.70;68.70;;;;;;5093209;27;20146;-83
2022/03/09 10:35:30;;;;;;;12.43;6.47;;;9.50;70.40;;;;;;5094451;27;20047;-86
2022/03/09 10:38:02;;;;;;;12.15;7.07;;;9.80;68.50;;;;;;5095581;27;20627;-84
2022/03/09 10:40:29;;;;;;;12.23;7.00;;;9.80;67.00;;;;;;5118503;27;20502;-84
2022/03/09 10:43:18;;;;;;;11.18;6.78;;;9.80;68.20;;;;;;5095227;27;20077;-83
2022/03/09 10:45:55;;;;;;;12.23;6.13;;;9.80;68.60;;;;;;5112750;27;20512;-82
2022/03/09 10:48:21;;;;;;;12.80;6.97;;;9.90;70.50;;;;;;5112913;27;20407;-83
2022/03/09 10:50:51;;;;;;;11.60;6.28;;;10.00;69.10;;;;;;5095777;27;20062;-86
2022/03/09 10:53:17;;;;;;;14.25;6.15;;;10.00;70.70;;;;;;5112196;27;20453;-83
2022/03/09 10:55:43;;;;;;;10.27;6.25;;;10.10;71.40;;;;;;5112490;27;20098;-84
2022/03/09 10:58:15;;;;;;;11.40;6.60;;;10.20;69.80;;;;;;5112846;27;20051;-85
2022/03/09 11:00:47;;;;;;;11.55;6.10;;;10.20;69.40;;;;;;5095209;27;20252;-83
2022/03/09 11:03:18;;;;;;;11.27;6.53;;;10.20;68.30;;;;;;5129453;27;20385;-85
2022/03/09 11:05:58;;;;;;;12.25;6.38;;;10.20;66.60;;;;;;5109615;27;20074;-83
2022/03/09 11:08:28;;;;;;;10.93;6.47;;;10.30;66.10;;;;;;5098015;28;20124;-82
2022/03/09 11:10:55;;;;;;;14.75;7.90;;;10.40;68.40;;;;;;5083557;27;20057;-87
2022/03/09 11:13:22;;;;;;;11.55;6.22;;;10.40;68.10;;;;;;5094916;27;20119;-84
2022/03/09 11:15:48;;;;;;;11.45;7.00;;;10.50;67.90;;;;;;5106298;27;20058;-82
2022/03/09 11:18:25;;;;;;;12.70;6.78;;;10.60;68.70;;;;;;5108926;28;20042;-83
2022/03/09 11:21:04;;;;;;;11.07;6.50;;;10.70;65.80;;;;;;5113162;27;20031;-83
2022/03/09 11:23:31;;;;;;;12.00;6.63;;;10.70;65.30;;;;;;5096713;27;20046;-83
2022/03/09 11:25:57;;;;;;;10.98;6.35;;;10.70;65.90;;;;;;5083455;27;20130;-83
2022/03/09 11:28:30;;;;;;;13.73;6.85;;;10.70;67.10;;;;;;5086024;28;20055;-86
2022/03/09 11:30:58;;;;;;;13.07;6.68;;;10.90;67.00;;;;;;5086604;27;20062;-82
2022/03/09 11:33:47;;;;;;;11.68;6.57;;;11.00;63.80;;;;;;5084999;27;20432;-83
2022/03/09 11:36:22;;;;;;;12.55;6.47;;;11.00;65.80;;;;;;5102582;27;20467;-83
2022/03/09 11:38:50;;;;;;;11.73;6.93;;;11.20;65.90;;;;;;5090444;27;20076;-82
2022/03/09 11:41:24;;;;;;;11.90;6.32;;;11.80;67.60;;;;;;5079283;27;20059;-83
2022/03/09 11:43:52;;;;;;;13.73;6.80;;;11.50;66.30;;;;;;5086569;27;20375;-83
2022/03/09 11:46:19;;;;;;;12.13;6.38;;;11.50;65.00;;;;;;5101479;27;20092;-82
2022/03/09 11:48:56;;;;;;;11.85;7.03;;;11.70;66.30;;;;;;5109070;27;20091;-83
2022/03/09 11:51:30;;;;;;;13.95;7.25;;;11.80;64.20;;;;;;5091831;28;20134;-88
2022/03/09 11:53:59;;;;;;;13.43;6.70;;;11.90;64.40;;;;;;5091830;27;20071;-81
2022/03/09 11:56:39;;;;;;;14.00;7.07;;;12.50;64.10;;;;;;5092538;27;20054;-84
2022/03/09 11:59:12;;;;;;;11.38;6.95;;;12.00;65.00;;;;;;5095034;27;20390;-83
2022/03/09 12:01:58;;;;;;;11.77;7.00;;;12.10;62.80;;;;;;5110393;27;20114;-85
2022/03/09 12:04:40;;;;;;;14.25;7.00;;;12.10;63.70;;;;;;5110824;27;20042;-85
2022/03/09 12:07:06;;;;;;;10.75;6.55;;;12.10;62.50;;;;;;5094504;27;20047;-87
2022/03/09 12:09:58;;;;;;;15.90;7.28;;;12.10;60.90;;;;;;5110348;27;20073;-82
2022/03/09 12:12:26;;;;;;;13.23;6.55;;;12.10;60.70;;;;;;5103863;27;20051;-83
2022/03/09 12:15:08;;;;;;;11.35;6.90;;;12.20;61.80;;;;;;5114539;27;20068;-85
2022/03/09 12:17:37;;;;;;;13.02;6.78;;;12.10;61.80;;;;;;5096127;27;20039;-83
2022/03/09 12:20:27;;;;;;;11.00;6.78;;;12.20;62.30;;;;;;5113202;27;20039;-83
2022/03/09 12:22:56;;;;;;;14.93;7.00;;;12.30;61.90;;;;;;5115715;27;20463;-86
2022/03/09 12:25:45;;;;;;;12.30;6.75;;;12.30;59.80;;;;;;5116835;27;20411;-82
2022/03/09 12:28:40;;;;;;;13.00;7.70;;;12.40;59.90;;;;;;5117842;27;20038;-82
2022/03/09 12:31:05;;;;;;;15.45;7.63;;;12.40;60.90;;;;;;5128250;27;20049;-81
2022/03/09 12:33:48;;;;;;;14.57;7.22;;;12.70;60.90;;;;;;5110901;27;20038;-84
2022/03/09 12:36:24;;;;;;;11.50;6.30;;;13.30;61.40;;;;;;5091482;27;20043;-84
2022/03/09 12:38:56;;;;;;;10.73;6.78;;;12.70;62.20;;;;;;5112579;27;20085;-82
2022/03/09 12:41:33;;;;;;;12.38;6.90;;;12.80;58.80;;;;;;5126609;27;20067;-83
2022/03/09 12:44:11;;;;;;;13.45;7.25;;;13.00;60.30;;;;;;5094377;27;20046;-83
2022/03/09 12:46:39;;;;;;;12.50;7.32;;;12.90;59.90;;;;;;5095379;27;20065;-83
2022/03/09 12:49:16;;;;;;;11.80;7.30;;;12.90;59.40;;;;;;5093807;27;20045;-82
2022/03/09 12:52:05;;;;;;;11.98;6.82;;;12.90;59.60;;;;;;5093148;27;20130;-81